sensor_id;sensor_type;location;lat;lon;timestamp;P1;durP1;ratioP1;P2;durP2;ratioP2
1613;SDS011;800;48.824;9.346;2023-02-24T00:01:34;22.80;;;17.40;;
1613;SDS011;800;48.824;9.346;2023-02-24T00:04:02;23.63;;;17.17;;
1613;SDS011;800;48.824;9.346;2023-02-24T00:06:33;19.50;;;15.10;;
1613;SDS011;800;48.824;9.346;2023-02-24T00:09:13;16.80;;;15.10;;
1613;SDS011;800;48.824;9.346;2023-02-24T00:11:43;17.40;;;13.93;;
1613;SDS011;800;48.824;9.346;2023-02-24T00:14:16;17.50;;;14.57;;
1613;SDS011;800;48.824;9.346;2023-02-24T00:16:43;17.13;;;15.10;;
1613;SDS011;800;48.824;9.346;2023-02-24T00:19:10;18.40;;;15.43;;
1613;SDS011;800;48.824;9.346;2023-02-24T00:21:37;17.33;;;15.23;;
1613;SDS011;800;48.824;9.346;2023-02-24T00:24:04;17.13;;;14.90;;
1613;SDS011;800;48.824;9.346;2023-02-24T00:26:30;20.33;;;14.60;;
1613;SDS011;800;48.824;9.346;2023-02-24T00:28:56;21.77;;;14.87;;
1613;SDS011;800;48.824;9.346;2023-02-24T00:31:24;18.03;;;15.67;;
1613;SDS011;800;48.824;9.346;2023-02-24T00:33:55;18.33;;;15.43;;
1613;SDS011;800;48.824;9.346;2023-02-24T00:36:21;18.03;;;15.47;;
1613;SDS011;800;48.824;9.346;2023-02-24T00:38:48;20.10;;;15.83;;
1613;SDS011;800;48.824;9.346;2023-02-24T00:41:23;19.23;;;16.23;;
1613;SDS011;800;48.824;9.346;2023-02-24T00:43:53;17.73;;;15.77;;
1613;SDS011;800;48.824;9.346;2023-02-24T00:46:21;17.13;;;14.73;;
1613;SDS011;800;48.824;9.346;2023-02-24T00:48:49;17.97;;;16.07;;
1613;SDS011;800;48.824;9.346;2023-02-24T00:51:20;16.77;;;15.03;;
1613;SDS011;800;48.824;9.346;2023-02-24T00:53:48;18.60;;;16.00;;
1613;SDS011;800;48.824;9.346;2023-02-24T00:56:28;18.07;;;15.80;;
1613;SDS011;800;48.824;9.346;2023-02-24T00:58:54;21.40;;;15.00;;
1613;SDS011;800;48.824;9.346;2023-02-24T01:01:22;19.43;;;16.30;;
1613;SDS011;800;48.824;9.346;2023-02-24T01:03:49;20.50;;;17.43;;
1613;SDS011;800;48.824;9.346;2023-02-24T01:06:21;22.10;;;15.80;;
1613;SDS011;800;48.824;9.346;2023-02-24T01:08:49;18.67;;;16.83;;
1613;SDS011;800;48.824;9.346;2023-02-24T01:11:16;18.53;;;15.40;;
1613;SDS011;800;48.824;9.346;2023-02-24T01:14:03;19.50;;;15.77;;
1613;SDS011;800;48.824;9.346;2023-02-24T01:16:33;18.40;;;16.37;;
1613;SDS011;800;48.824;9.346;2023-02-24T01:19:00;17.70;;;15.80;;
1613;SDS011;800;48.824;9.346;2023-02-24T01:21:26;20.67;;;16.20;;
1613;SDS011;800;48.824;9.346;2023-02-24T01:23:52;20.33;;;15.90;;
1613;SDS011;800;48.824;9.346;2023-02-24T01:26:18;25.23;;;17.20;;
1613;SDS011;800;48.824;9.346;2023-02-24T01:28:44;18.80;;;15.57;;
1613;SDS011;800;48.824;9.346;2023-02-24T01:31:10;21.63;;;16.80;;
1613;SDS011;800;48.824;9.346;2023-02-24T01:33:37;18.07;;;16.00;;
1613;SDS011;800;48.824;9.346;2023-02-24T01:36:16;21.93;;;17.00;;
1613;SDS011;800;48.824;9.346;2023-02-24T01:38:46;19.30;;;16.00;;
1613;SDS011;800;48.824;9.346;2023-02-24T01:41:17;21.37;;;17.07;;
1613;SDS011;800;48.824;9.346;2023-02-24T01:43:59;21.20;;;17.10;;
1613;SDS011;800;48.824;9.346;2023-02-24T01:48:56;22.50;;;16.37;;
1613;SDS011;800;48.824;9.346;2023-02-24T01:51:27;22.50;;;16.27;;
1613;SDS011;800;48.824;9.346;2023-02-24T01:53:57;22.47;;;17.40;;
1613;SDS011;800;48.824;9.346;2023-02-24T01:56:23;20.57;;;17.30;;
1613;SDS011;800;48.824;9.346;2023-02-24T01:58:49;22.27;;;17.40;;
1613;SDS011;800;48.824;9.346;2023-02-24T02:01:15;21.90;;;17.27;;
1613;SDS011;800;48.824;9.346;2023-02-24T02:03:44;25.40;;;17.63;;
1613;SDS011;800;48.824;9.346;2023-02-24T02:06:11;22.17;;;19.17;;
1613;SDS011;800;48.824;9.346;2023-02-24T02:08:41;22.67;;;17.50;;
1613;SDS011;800;48.824;9.346;2023-02-24T02:11:08;21.23;;;17.90;;
1613;SDS011;800;48.824;9.346;2023-02-24T02:13:36;21.03;;;17.73;;
1613;SDS011;800;48.824;9.346;2023-02-24T02:24:17;18.47;;;16.47;;
1613;SDS011;800;48.824;9.346;2023-02-24T02:35:07;21.00;;;17.00;;
1613;SDS011;800;48.824;9.346;2023-02-24T02:40:14;23.13;;;17.33;;
1613;SDS011;800;48.824;9.346;2023-02-24T02:42:51;20.17;;;16.57;;
1613;SDS011;800;48.824;9.346;2023-02-24T02:45:28;20.33;;;17.60;;
1613;SDS011;800;48.824;9.346;2023-02-24T02:48:03;19.93;;;17.73;;
1613;SDS011;800;48.824;9.346;2023-02-24T02:53:11;20.60;;;15.73;;
1613;SDS011;800;48.824;9.346;2023-02-24T02:55:44;23.43;;;17.00;;
1613;SDS011;800;48.824;9.346;2023-02-24T02:58:18;21.13;;;16.83;;
1613;SDS011;800;48.824;9.346;2023-02-24T03:00:49;20.93;;;17.27;;
1613;SDS011;800;48.824;9.346;2023-02-24T03:03:32;17.93;;;16.10;;
1613;SDS011;800;48.824;9.346;2023-02-24T03:06:02;18.90;;;16.30;;
1613;SDS011;800;48.824;9.346;2023-02-24T03:08:33;24.50;;;17.47;;
1613;SDS011;800;48.824;9.346;2023-02-24T03:11:02;19.93;;;15.20;;
1613;SDS011;800;48.824;9.346;2023-02-24T03:13:32;21.87;;;17.33;;
1613;SDS011;800;48.824;9.346;2023-02-24T03:16:01;21.97;;;16.47;;
1613;SDS011;800;48.824;9.346;2023-02-24T03:18:30;23.87;;;17.50;;
1613;SDS011;800;48.824;9.346;2023-02-24T03:21:05;23.03;;;17.10;;
1613;SDS011;800;48.824;9.346;2023-02-24T03:23:42;19.43;;;16.00;;
1613;SDS011;800;48.824;9.346;2023-02-24T03:26:58;24.37;;;17.20;;
1613;SDS011;800;48.824;9.346;2023-02-24T03:29:18;20.53;;;16.60;;
1613;SDS011;800;48.824;9.346;2023-02-24T03:32:31;26.00;;;18.70;;
1613;SDS011;800;48.824;9.346;2023-02-24T03:35:26;22.43;;;17.67;;
1613;SDS011;800;48.824;9.346;2023-02-24T03:37:55;21.90;;;17.40;;
1613;SDS011;800;48.824;9.346;2023-02-24T03:40:23;23.13;;;16.87;;
1613;SDS011;800;48.824;9.346;2023-02-24T03:42:56;22.13;;;18.00;;
1613;SDS011;800;48.824;9.346;2023-02-24T03:45:30;21.23;;;17.03;;
1613;SDS011;800;48.824;9.346;2023-02-24T03:47:59;23.43;;;17.80;;
1613;SDS011;800;48.824;9.346;2023-02-24T03:50:27;23.03;;;18.60;;
1613;SDS011;800;48.824;9.346;2023-02-24T04:00:52;25.23;;;19.50;;
1613;SDS011;800;48.824;9.346;2023-02-24T04:06:09;29.23;;;19.93;;
1613;SDS011;800;48.824;9.346;2023-02-24T04:08:51;21.30;;;18.20;;
1613;SDS011;800;48.824;9.346;2023-02-24T04:11:41;23.13;;;19.00;;
1613;SDS011;800;48.824;9.346;2023-02-24T04:14:15;25.60;;;19.17;;
1613;SDS011;800;48.824;9.346;2023-02-24T04:16:54;22.83;;;17.00;;
1613;SDS011;800;48.824;9.346;2023-02-24T04:19:38;24.67;;;18.97;;
1613;SDS011;800;48.824;9.346;2023-02-24T04:22:07;28.40;;;19.17;;
1613;SDS011;800;48.824;9.346;2023-02-24T04:24:34;26.37;;;19.20;;
1613;SDS011;800;48.824;9.346;2023-02-24T04:27:04;25.60;;;19.87;;
1613;SDS011;800;48.824;9.346;2023-02-24T04:29:37;24.77;;;19.40;;
1613;SDS011;800;48.824;9.346;2023-02-24T04:32:11;37.53;;;30.53;;
1613;SDS011;800;48.824;9.346;2023-02-24T04:34:38;30.77;;;22.60;;
1613;SDS011;800;48.824;9.346;2023-02-24T04:37:05;27.27;;;20.57;;
1613;SDS011;800;48.824;9.346;2023-02-24T04:39:30;28.97;;;19.10;;
1613;SDS011;800;48.824;9.346;2023-02-24T04:41:56;30.60;;;19.70;;
1613;SDS011;800;48.824;9.346;2023-02-24T04:44:25;25.07;;;19.43;;
1613;SDS011;800;48.824;9.346;2023-02-24T04:46:52;26.17;;;20.10;;
1613;SDS011;800;48.824;9.346;2023-02-24T04:49:18;28.10;;;19.87;;
1613;SDS011;800;48.824;9.346;2023-02-24T04:51:44;25.90;;;20.30;;
1613;SDS011;800;48.824;9.346;2023-02-24T04:54:11;24.60;;;19.30;;
1613;SDS011;800;48.824;9.346;2023-02-24T04:56:41;25.10;;;19.87;;
1613;SDS011;800;48.824;9.346;2023-02-24T04:59:08;32.57;;;19.10;;
1613;SDS011;800;48.824;9.346;2023-02-24T05:01:35;24.13;;;19.50;;
1613;SDS011;800;48.824;9.346;2023-02-24T05:04:05;29.03;;;19.57;;
1613;SDS011;800;48.824;9.346;2023-02-24T05:06:31;27.03;;;19.67;;
1613;SDS011;800;48.824;9.346;2023-02-24T05:08:57;26.10;;;19.83;;
1613;SDS011;800;48.824;9.346;2023-02-24T05:11:25;28.00;;;20.60;;
1613;SDS011;800;48.824;9.346;2023-02-24T05:13:51;32.10;;;20.67;;
1613;SDS011;800;48.824;9.346;2023-02-24T05:16:17;24.90;;;18.67;;
1613;SDS011;800;48.824;9.346;2023-02-24T05:18:44;27.30;;;18.90;;
1613;SDS011;800;48.824;9.346;2023-02-24T05:21:11;25.30;;;19.63;;
1613;SDS011;800;48.824;9.346;2023-02-24T05:23:57;29.47;;;19.40;;
1613;SDS011;800;48.824;9.346;2023-02-24T05:26:23;29.47;;;20.47;;
1613;SDS011;800;48.824;9.346;2023-02-24T05:28:50;24.90;;;19.03;;
1613;SDS011;800;48.824;9.346;2023-02-24T05:31:18;25.97;;;20.73;;
1613;SDS011;800;48.824;9.346;2023-02-24T05:33:51;28.40;;;19.53;;
1613;SDS011;800;48.824;9.346;2023-02-24T05:36:19;30.80;;;20.57;;
1613;SDS011;800;48.824;9.346;2023-02-24T05:38:46;28.53;;;21.03;;
1613;SDS011;800;48.824;9.346;2023-02-24T05:41:14;26.67;;;20.63;;
1613;SDS011;800;48.824;9.346;2023-02-24T05:43:48;29.20;;;22.03;;
1613;SDS011;800;48.824;9.346;2023-02-24T05:46:23;30.90;;;21.73;;
1613;SDS011;800;48.824;9.346;2023-02-24T05:48:56;27.37;;;20.97;;
1613;SDS011;800;48.824;9.346;2023-02-24T05:51:24;28.17;;;20.20;;
1613;SDS011;800;48.824;9.346;2023-02-24T05:54:06;27.63;;;20.93;;
1613;SDS011;800;48.824;9.346;2023-02-24T05:56:33;27.63;;;20.17;;
1613;SDS011;800;48.824;9.346;2023-02-24T05:59:01;33.50;;;22.33;;
1613;SDS011;800;48.824;9.346;2023-02-24T06:01:32;29.80;;;23.33;;
1613;SDS011;800;48.824;9.346;2023-02-24T06:04:01;37.60;;;24.47;;
1613;SDS011;800;48.824;9.346;2023-02-24T06:06:34;35.83;;;24.20;;
1613;SDS011;800;48.824;9.346;2023-02-24T06:09:05;35.63;;;24.60;;
1613;SDS011;800;48.824;9.346;2023-02-24T06:11:38;33.33;;;24.60;;
1613;SDS011;800;48.824;9.346;2023-02-24T06:14:06;34.80;;;24.20;;
1613;SDS011;800;48.824;9.346;2023-02-24T06:16:33;35.07;;;25.23;;
1613;SDS011;800;48.824;9.346;2023-02-24T06:19:00;37.60;;;25.20;;
1613;SDS011;800;48.824;9.346;2023-02-24T06:21:25;35.63;;;25.20;;
1613;SDS011;800;48.824;9.346;2023-02-24T06:23:54;33.73;;;24.13;;
1613;SDS011;800;48.824;9.346;2023-02-24T06:26:21;33.40;;;23.60;;
1613;SDS011;800;48.824;9.346;2023-02-24T06:28:47;32.87;;;23.77;;
1613;SDS011;800;48.824;9.346;2023-02-24T06:31:16;36.73;;;26.63;;
1613;SDS011;800;48.824;9.346;2023-02-24T06:33:41;32.10;;;25.40;;
1613;SDS011;800;48.824;9.346;2023-02-24T06:36:07;38.03;;;24.50;;
1613;SDS011;800;48.824;9.346;2023-02-24T06:38:34;35.63;;;25.30;;
1613;SDS011;800;48.824;9.346;2023-02-24T06:41:01;36.00;;;26.07;;
1613;SDS011;800;48.824;9.346;2023-02-24T06:43:30;40.57;;;25.63;;
1613;SDS011;800;48.824;9.346;2023-02-24T06:45:56;36.93;;;24.80;;
1613;SDS011;800;48.824;9.346;2023-02-24T06:48:23;42.70;;;27.67;;
1613;SDS011;800;48.824;9.346;2023-02-24T06:50:49;40.50;;;26.30;;
1613;SDS011;800;48.824;9.346;2023-02-24T06:53:15;34.63;;;24.80;;
1613;SDS011;800;48.824;9.346;2023-02-24T06:55:42;39.73;;;26.87;;
1613;SDS011;800;48.824;9.346;2023-02-24T06:58:16;39.17;;;25.70;;
1613;SDS011;800;48.824;9.346;2023-02-24T07:00:44;40.33;;;26.47;;
1613;SDS011;800;48.824;9.346;2023-02-24T07:03:20;38.37;;;26.07;;
1613;SDS011;800;48.824;9.346;2023-02-24T07:05:52;40.50;;;26.07;;
1613;SDS011;800;48.824;9.346;2023-02-24T07:08:34;36.80;;;26.20;;
1613;SDS011;800;48.824;9.346;2023-02-24T07:11:01;37.07;;;24.80;;
1613;SDS011;800;48.824;9.346;2023-02-24T07:13:30;35.77;;;24.90;;
1613;SDS011;800;48.824;9.346;2023-02-24T07:15:58;38.40;;;26.37;;
1613;SDS011;800;48.824;9.346;2023-02-24T07:18:30;37.50;;;26.37;;
1613;SDS011;800;48.824;9.346;2023-02-24T07:21:00;41.60;;;28.00;;
1613;SDS011;800;48.824;9.346;2023-02-24T07:23:35;41.73;;;27.80;;
1613;SDS011;800;48.824;9.346;2023-02-24T07:26:07;47.17;;;33.67;;
1613;SDS011;800;48.824;9.346;2023-02-24T07:28:43;40.97;;;29.43;;
1613;SDS011;800;48.824;9.346;2023-02-24T07:31:11;43.70;;;28.57;;
1613;SDS011;800;48.824;9.346;2023-02-24T07:33:41;43.63;;;28.37;;
1613;SDS011;800;48.824;9.346;2023-02-24T07:36:09;44.07;;;28.90;;
1613;SDS011;800;48.824;9.346;2023-02-24T07:38:39;47.77;;;30.20;;
1613;SDS011;800;48.824;9.346;2023-02-24T07:41:06;47.90;;;30.27;;
1613;SDS011;800;48.824;9.346;2023-02-24T07:43:34;43.57;;;29.30;;
1613;SDS011;800;48.824;9.346;2023-02-24T07:46:05;47.53;;;28.20;;
1613;SDS011;800;48.824;9.346;2023-02-24T07:48:36;41.23;;;27.87;;
1613;SDS011;800;48.824;9.346;2023-02-24T07:51:13;44.40;;;27.00;;
1613;SDS011;800;48.824;9.346;2023-02-24T07:53:40;46.43;;;28.57;;
1613;SDS011;800;48.824;9.346;2023-02-24T07:56:11;48.47;;;30.80;;
1613;SDS011;800;48.824;9.346;2023-02-24T07:58:39;48.83;;;30.30;;
1613;SDS011;800;48.824;9.346;2023-02-24T08:01:09;48.50;;;29.10;;
1613;SDS011;800;48.824;9.346;2023-02-24T08:03:46;45.07;;;29.10;;
1613;SDS011;800;48.824;9.346;2023-02-24T08:06:14;47.40;;;28.93;;
1613;SDS011;800;48.824;9.346;2023-02-24T08:08:42;49.80;;;29.30;;
1613;SDS011;800;48.824;9.346;2023-02-24T08:11:28;46.03;;;28.37;;
1613;SDS011;800;48.824;9.346;2023-02-24T08:14:06;44.93;;;28.07;;
1613;SDS011;800;48.824;9.346;2023-02-24T08:16:47;49.50;;;28.70;;
1613;SDS011;800;48.824;9.346;2023-02-24T08:19:24;60.93;;;29.07;;
1613;SDS011;800;48.824;9.346;2023-02-24T08:21:53;44.77;;;27.57;;
1613;SDS011;800;48.824;9.346;2023-02-24T08:24:21;42.90;;;26.63;;
1613;SDS011;800;48.824;9.346;2023-02-24T08:26:49;44.13;;;27.00;;
1613;SDS011;800;48.824;9.346;2023-02-24T08:29:31;49.00;;;28.67;;
1613;SDS011;800;48.824;9.346;2023-02-24T08:32:04;44.07;;;27.87;;
1613;SDS011;800;48.824;9.346;2023-02-24T08:34:33;44.07;;;27.67;;
1613;SDS011;800;48.824;9.346;2023-02-24T08:36:59;43.80;;;26.77;;
1613;SDS011;800;48.824;9.346;2023-02-24T08:39:26;47.50;;;29.40;;
1613;SDS011;800;48.824;9.346;2023-02-24T08:41:55;47.10;;;27.57;;
1613;SDS011;800;48.824;9.346;2023-02-24T08:44:21;43.03;;;26.27;;
1613;SDS011;800;48.824;9.346;2023-02-24T08:46:47;49.80;;;28.47;;
1613;SDS011;800;48.824;9.346;2023-02-24T08:49:14;45.60;;;27.90;;
1613;SDS011;800;48.824;9.346;2023-02-24T08:51:43;50.53;;;27.30;;
1613;SDS011;800;48.824;9.346;2023-02-24T08:54:13;48.63;;;28.40;;
1613;SDS011;800;48.824;9.346;2023-02-24T08:56:41;61.53;;;27.73;;
1613;SDS011;800;48.824;9.346;2023-02-24T08:59:13;46.83;;;26.80;;
1613;SDS011;800;48.824;9.346;2023-02-24T09:01:56;46.57;;;25.93;;
1613;SDS011;800;48.824;9.346;2023-02-24T09:04:42;54.10;;;28.40;;
1613;SDS011;800;48.824;9.346;2023-02-24T09:07:31;53.20;;;29.70;;
1613;SDS011;800;48.824;9.346;2023-02-24T09:10:00;49.50;;;28.33;;
1613;SDS011;800;48.824;9.346;2023-02-24T09:12:28;46.80;;;26.50;;
1613;SDS011;800;48.824;9.346;2023-02-24T09:14:55;45.47;;;27.17;;
1613;SDS011;800;48.824;9.346;2023-02-24T09:17:31;52.90;;;29.23;;
1613;SDS011;800;48.824;9.346;2023-02-24T09:20:19;47.03;;;28.13;;
1613;SDS011;800;48.824;9.346;2023-02-24T09:22:49;41.33;;;26.17;;
1613;SDS011;800;48.824;9.346;2023-02-24T09:25:22;44.30;;;25.27;;
1613;SDS011;800;48.824;9.346;2023-02-24T09:30:24;51.97;;;28.20;;
1613;SDS011;800;48.824;9.346;2023-02-24T09:33:08;50.57;;;28.60;;
1613;SDS011;800;48.824;9.346;2023-02-24T09:35:49;53.93;;;29.37;;
1613;SDS011;800;48.824;9.346;2023-02-24T09:38:21;49.37;;;27.20;;
1613;SDS011;800;48.824;9.346;2023-02-24T09:41:10;50.90;;;28.23;;
1613;SDS011;800;48.824;9.346;2023-02-24T09:43:55;49.17;;;30.80;;
1613;SDS011;800;48.824;9.346;2023-02-24T09:46:29;49.10;;;26.80;;
1613;SDS011;800;48.824;9.346;2023-02-24T09:49:01;43.03;;;26.50;;
1613;SDS011;800;48.824;9.346;2023-02-24T09:51:36;44.50;;;25.03;;
1613;SDS011;800;48.824;9.346;2023-02-24T09:54:12;41.80;;;25.80;;
1613;SDS011;800;48.824;9.346;2023-02-24T09:56:41;40.93;;;25.77;;
1613;SDS011;800;48.824;9.346;2023-02-24T10:02:02;44.63;;;27.00;;
1613;SDS011;800;48.824;9.346;2023-02-24T10:05:09;43.40;;;25.10;;
1613;SDS011;800;48.824;9.346;2023-02-24T10:07:39;44.27;;;26.23;;
1613;SDS011;800;48.824;9.346;2023-02-24T10:10:17;38.93;;;23.70;;
1613;SDS011;800;48.824;9.346;2023-02-24T10:12:53;46.73;;;26.07;;
1613;SDS011;800;48.824;9.346;2023-02-24T10:15:40;53.73;;;27.50;;
1613;SDS011;800;48.824;9.346;2023-02-24T10:20:51;42.10;;;25.50;;
1613;SDS011;800;48.824;9.346;2023-02-24T10:26:06;35.10;;;21.30;;
1613;SDS011;800;48.824;9.346;2023-02-24T10:32:04;34.90;;;20.27;;
1613;SDS011;800;48.824;9.346;2023-02-24T10:34:47;34.53;;;20.97;;
1613;SDS011;800;48.824;9.346;2023-02-24T10:37:21;33.73;;;21.60;;
1613;SDS011;800;48.824;9.346;2023-02-24T10:39:48;33.37;;;20.70;;
1613;SDS011;800;48.824;9.346;2023-02-24T10:42:25;34.67;;;21.83;;
1613;SDS011;800;48.824;9.346;2023-02-24T10:45:04;38.07;;;19.47;;
1613;SDS011;800;48.824;9.346;2023-02-24T10:47:37;38.60;;;22.17;;
1613;SDS011;800;48.824;9.346;2023-02-24T10:50:54;32.93;;;20.20;;
1613;SDS011;800;48.824;9.346;2023-02-24T10:53:00;29.10;;;18.90;;
1613;SDS011;800;48.824;9.346;2023-02-24T10:55:33;29.60;;;18.30;;
1613;SDS011;800;48.824;9.346;2023-02-24T11:01:12;31.70;;;17.10;;
1613;SDS011;800;48.824;9.346;2023-02-24T11:03:51;29.03;;;16.10;;
1613;SDS011;800;48.824;9.346;2023-02-24T11:06:47;29.40;;;17.47;;
1613;SDS011;800;48.824;9.346;2023-02-24T11:09:22;34.03;;;19.93;;
1613;SDS011;800;48.824;9.346;2023-02-24T11:12:06;31.57;;;17.60;;
1613;SDS011;800;48.824;9.346;2023-02-24T11:14:58;33.50;;;20.17;;
1613;SDS011;800;48.824;9.346;2023-02-24T11:17:47;33.67;;;19.90;;
1613;SDS011;800;48.824;9.346;2023-02-24T11:22:43;42.63;;;20.23;;
1613;SDS011;800;48.824;9.346;2023-02-24T11:27:40;38.00;;;20.37;;
1613;SDS011;800;48.824;9.346;2023-02-24T11:38:45;41.20;;;22.50;;
1613;SDS011;800;48.824;9.346;2023-02-24T11:41:33;42.13;;;24.10;;
1613;SDS011;800;48.824;9.346;2023-02-24T11:44:29;39.80;;;21.93;;
1613;SDS011;800;48.824;9.346;2023-02-24T11:47:17;38.80;;;20.90;;
1613;SDS011;800;48.824;9.346;2023-02-24T11:52:44;40.53;;;22.53;;
1613;SDS011;800;48.824;9.346;2023-02-24T11:55:16;39.33;;;21.93;;
1613;SDS011;800;48.824;9.346;2023-02-24T11:57:56;42.13;;;23.40;;
1613;SDS011;800;48.824;9.346;2023-02-24T12:00:25;40.40;;;22.30;;
1613;SDS011;800;48.824;9.346;2023-02-24T12:05:37;38.17;;;21.60;;
1613;SDS011;800;48.824;9.346;2023-02-24T12:08:14;44.67;;;21.20;;
1613;SDS011;800;48.824;9.346;2023-02-24T12:10:50;38.53;;;22.40;;
1613;SDS011;800;48.824;9.346;2023-02-24T12:13:35;37.07;;;19.90;;
1613;SDS011;800;48.824;9.346;2023-02-24T12:16:24;36.93;;;20.47;;
1613;SDS011;800;48.824;9.346;2023-02-24T12:18:58;41.57;;;21.63;;
1613;SDS011;800;48.824;9.346;2023-02-24T12:21:32;42.67;;;22.77;;
1613;SDS011;800;48.824;9.346;2023-02-24T12:24:03;42.83;;;21.50;;
1613;SDS011;800;48.824;9.346;2023-02-24T12:34:35;44.27;;;21.60;;
1613;SDS011;800;48.824;9.346;2023-02-24T12:42:12;39.07;;;22.43;;
1613;SDS011;800;48.824;9.346;2023-02-24T12:51:04;35.33;;;18.53;;
1613;SDS011;800;48.824;9.346;2023-02-24T12:58:44;39.90;;;21.77;;
1613;SDS011;800;48.824;9.346;2023-02-24T13:01:30;41.80;;;21.57;;
1613;SDS011;800;48.824;9.346;2023-02-24T13:07:17;42.63;;;23.53;;
1613;SDS011;800;48.824;9.346;2023-02-24T13:15:55;36.93;;;19.63;;
1613;SDS011;800;48.824;9.346;2023-02-24T13:18:31;36.83;;;21.67;;
1613;SDS011;800;48.824;9.346;2023-02-24T13:21:03;39.50;;;20.17;;
1613;SDS011;800;48.824;9.346;2023-02-24T13:23:31;44.40;;;20.30;;
1613;SDS011;800;48.824;9.346;2023-02-24T13:25:57;38.53;;;18.53;;
1613;SDS011;800;48.824;9.346;2023-02-24T13:30:57;38.33;;;19.07;;
1613;SDS011;800;48.824;9.346;2023-02-24T13:33:39;39.80;;;19.50;;
1613;SDS011;800;48.824;9.346;2023-02-24T13:36:10;35.93;;;18.33;;
1613;SDS011;800;48.824;9.346;2023-02-24T13:38:41;36.37;;;21.10;;
1613;SDS011;800;48.824;9.346;2023-02-24T13:41:34;35.77;;;19.60;;
1613;SDS011;800;48.824;9.346;2023-02-24T13:46:59;39.77;;;20.93;;
1613;SDS011;800;48.824;9.346;2023-02-24T13:55:17;36.93;;;20.13;;
1613;SDS011;800;48.824;9.346;2023-02-24T13:58:07;34.97;;;20.80;;
1613;SDS011;800;48.824;9.346;2023-02-24T14:03:44;31.63;;;19.80;;
1613;SDS011;800;48.824;9.346;2023-02-24T14:06:27;35.93;;;19.97;;
1613;SDS011;800;48.824;9.346;2023-02-24T14:09:02;34.83;;;20.17;;
1613;SDS011;800;48.824;9.346;2023-02-24T14:11:31;39.03;;;21.10;;
1613;SDS011;800;48.824;9.346;2023-02-24T14:13:59;32.90;;;18.97;;
1613;SDS011;800;48.824;9.346;2023-02-24T14:16:26;37.43;;;19.70;;
1613;SDS011;800;48.824;9.346;2023-02-24T14:18:57;36.33;;;18.30;;
1613;SDS011;800;48.824;9.346;2023-02-24T14:21:26;33.40;;;17.87;;
1613;SDS011;800;48.824;9.346;2023-02-24T14:24:02;30.77;;;19.47;;
1613;SDS011;800;48.824;9.346;2023-02-24T14:26:42;32.20;;;18.13;;
1613;SDS011;800;48.824;9.346;2023-02-24T14:29:12;34.77;;;20.03;;
1613;SDS011;800;48.824;9.346;2023-02-24T14:31:45;34.20;;;17.57;;
1613;SDS011;800;48.824;9.346;2023-02-24T14:34:16;33.20;;;18.30;;
1613;SDS011;800;48.824;9.346;2023-02-24T14:36:44;30.27;;;17.60;;
1613;SDS011;800;48.824;9.346;2023-02-24T14:39:13;31.20;;;17.50;;
1613;SDS011;800;48.824;9.346;2023-02-24T14:41:41;34.60;;;16.47;;
1613;SDS011;800;48.824;9.346;2023-02-24T14:46:57;30.77;;;16.20;;
1613;SDS011;800;48.824;9.346;2023-02-24T14:49:26;29.53;;;16.93;;
1613;SDS011;800;48.824;9.346;2023-02-24T14:52:08;28.10;;;16.17;;
1613;SDS011;800;48.824;9.346;2023-02-24T14:54:43;28.60;;;16.97;;
1613;SDS011;800;48.824;9.346;2023-02-24T14:57:15;27.70;;;17.00;;
1613;SDS011;800;48.824;9.346;2023-02-24T14:59:44;33.63;;;20.73;;
1613;SDS011;800;48.824;9.346;2023-02-24T15:02:14;33.20;;;19.77;;
1613;SDS011;800;48.824;9.346;2023-02-24T15:04:43;34.40;;;22.17;;
1613;SDS011;800;48.824;9.346;2023-02-24T15:07:15;28.03;;;18.17;;
1613;SDS011;800;48.824;9.346;2023-02-24T15:09:48;26.50;;;16.70;;
1613;SDS011;800;48.824;9.346;2023-02-24T15:12:35;30.40;;;15.80;;
1613;SDS011;800;48.824;9.346;2023-02-24T15:15:19;26.97;;;15.77;;
1613;SDS011;800;48.824;9.346;2023-02-24T15:17:54;28.00;;;15.07;;
1613;SDS011;800;48.824;9.346;2023-02-24T15:20:23;23.90;;;14.80;;
1613;SDS011;800;48.824;9.346;2023-02-24T15:22:52;33.90;;;15.83;;
1613;SDS011;800;48.824;9.346;2023-02-24T15:25:22;26.40;;;16.70;;
1613;SDS011;800;48.824;9.346;2023-02-24T15:27:54;23.33;;;15.17;;
1613;SDS011;800;48.824;9.346;2023-02-24T15:30:29;22.87;;;15.50;;
1613;SDS011;800;48.824;9.346;2023-02-24T15:33:02;26.60;;;15.60;;
1613;SDS011;800;48.824;9.346;2023-02-24T15:35:38;27.83;;;16.07;;
1613;SDS011;800;48.824;9.346;2023-02-24T15:40:52;25.90;;;14.60;;
1613;SDS011;800;48.824;9.346;2023-02-24T15:43:37;27.43;;;14.73;;
1613;SDS011;800;48.824;9.346;2023-02-24T15:46:19;21.67;;;15.03;;
1613;SDS011;800;48.824;9.346;2023-02-24T15:48:49;29.60;;;15.60;;
1613;SDS011;800;48.824;9.346;2023-02-24T15:54:04;23.10;;;15.30;;
1613;SDS011;800;48.824;9.346;2023-02-24T15:56:32;21.90;;;14.30;;
1613;SDS011;800;48.824;9.346;2023-02-24T15:58:59;23.57;;;13.87;;
1613;SDS011;800;48.824;9.346;2023-02-24T16:01:26;18.80;;;13.70;;
1613;SDS011;800;48.824;9.346;2023-02-24T16:03:56;24.67;;;15.10;;
1613;SDS011;800;48.824;9.346;2023-02-24T16:06:22;24.80;;;15.33;;
1613;SDS011;800;48.824;9.346;2023-02-24T16:08:49;22.00;;;14.97;;
1613;SDS011;800;48.824;9.346;2023-02-24T16:11:19;22.57;;;14.80;;
1613;SDS011;800;48.824;9.346;2023-02-24T16:13:53;21.27;;;14.33;;
1613;SDS011;800;48.824;9.346;2023-02-24T16:16:21;21.63;;;15.60;;
1613;SDS011;800;48.824;9.346;2023-02-24T16:18:48;20.03;;;14.30;;
1613;SDS011;800;48.824;9.346;2023-02-24T16:21:14;24.60;;;15.30;;
1613;SDS011;800;48.824;9.346;2023-02-24T16:23:41;23.00;;;14.37;;
1613;SDS011;800;48.824;9.346;2023-02-24T16:26:09;19.27;;;13.67;;
1613;SDS011;800;48.824;9.346;2023-02-24T16:28:40;25.40;;;14.50;;
1613;SDS011;800;48.824;9.346;2023-02-24T16:31:07;20.90;;;14.60;;
1613;SDS011;800;48.824;9.346;2023-02-24T16:33:33;72.73;;;64.77;;
1613;SDS011;800;48.824;9.346;2023-02-24T16:35:59;27.13;;;19.30;;
1613;SDS011;800;48.824;9.346;2023-02-24T16:38:25;23.00;;;13.93;;
1613;SDS011;800;48.824;9.346;2023-02-24T16:40:51;23.43;;;15.47;;
1613;SDS011;800;48.824;9.346;2023-02-24T16:43:17;23.10;;;15.40;;
1613;SDS011;800;48.824;9.346;2023-02-24T16:45:43;19.03;;;14.30;;
1613;SDS011;800;48.824;9.346;2023-02-24T16:48:20;24.37;;;16.17;;
1613;SDS011;800;48.824;9.346;2023-02-24T16:50:48;22.53;;;15.00;;
1613;SDS011;800;48.824;9.346;2023-02-24T16:53:17;22.47;;;17.27;;
1613;SDS011;800;48.824;9.346;2023-02-24T16:55:44;21.80;;;14.97;;
1613;SDS011;800;48.824;9.346;2023-02-24T16:58:11;23.50;;;14.97;;
1613;SDS011;800;48.824;9.346;2023-02-24T17:00:38;20.40;;;15.30;;
1613;SDS011;800;48.824;9.346;2023-02-24T17:03:26;23.00;;;15.90;;
1613;SDS011;800;48.824;9.346;2023-02-24T17:05:54;31.37;;;19.97;;
1613;SDS011;800;48.824;9.346;2023-02-24T17:08:20;26.57;;;16.63;;
1613;SDS011;800;48.824;9.346;2023-02-24T17:10:46;27.80;;;16.37;;
1613;SDS011;800;48.824;9.346;2023-02-24T17:13:13;20.77;;;15.83;;
1613;SDS011;800;48.824;9.346;2023-02-24T17:15:41;25.57;;;16.17;;
1613;SDS011;800;48.824;9.346;2023-02-24T17:18:07;25.50;;;14.60;;
1613;SDS011;800;48.824;9.346;2023-02-24T17:20:33;20.87;;;13.80;;
1613;SDS011;800;48.824;9.346;2023-02-24T17:23:00;25.47;;;14.23;;
1613;SDS011;800;48.824;9.346;2023-02-24T17:25:27;18.70;;;12.73;;
1613;SDS011;800;48.824;9.346;2023-02-24T17:27:54;20.83;;;12.40;;
1613;SDS011;800;48.824;9.346;2023-02-24T17:30:25;17.00;;;12.87;;
1613;SDS011;800;48.824;9.346;2023-02-24T17:32:53;17.17;;;12.03;;
1613;SDS011;800;48.824;9.346;2023-02-24T17:35:19;17.37;;;12.50;;
1613;SDS011;800;48.824;9.346;2023-02-24T17:37:45;23.27;;;12.10;;